Time;durP1;ratioP1;P1;durP2;ratioP2;P2;SDS_P1;SDS_P2;PMS_P1;PMS_P2;Temp;Humidity;BMP_temperature;BMP_pressure;BME280_temperature;BME280_humidity;BME280_pressure;Samples;Min_cycle;Max_cycle;Signal;HPM_P1;HPM_P2
2023/05/19 00:00:16;;;;;;;19.55;7.60;;;9.80;99.90;;;;;;7586765;19;20022;-82
2023/05/19 00:02:49;;;;;;;15.32;6.32;;;9.80;99.90;;;;;;7600154;19;20055;-84
2023/05/19 00:05:23;;;;;;;19.83;6.65;;;9.80;99.90;;;;;;7579914;19;20391;-84
2023/05/19 00:08:01;;;;;;;21.13;7.60;;;9.80;99.90;;;;;;7586522;19;20030;-84
2023/05/19 00:10:34;;;;;;;17.80;7.35;;;9.80;99.90;;;;;;7599225;19;20030;-84
2023/05/19 00:13:07;;;;;;;25.90;7.85;;;9.80;99.90;;;;;;7599996;19;20042;-84
2023/05/19 00:15:40;;;;;;;19.13;7.53;;;9.80;99.90;;;;;;7602202;19;20021;-84
2023/05/19 00:18:15;;;;;;;19.63;7.10;;;9.80;99.90;;;;;;7592898;19;20282;-84
2023/05/19 00:20:47;;;;;;;14.07;7.57;;;9.80;99.90;;;;;;7612750;19;20018;-84
2023/05/19 00:23:20;;;;;;;19.05;7.38;;;9.80;99.90;;;;;;7588326;19;25310;-84
2023/05/19 00:25:52;;;;;;;16.23;7.10;;;9.80;99.90;;;;;;7585415;19;20010;-84
2023/05/19 00:28:25;;;;;;;17.97;7.50;;;9.80;99.90;;;;;;7603036;19;20035;-84
2023/05/19 00:30:57;;;;;;;20.92;7.55;;;9.80;99.90;;;;;;7600991;19;20010;-84
2023/05/19 00:33:29;;;;;;;15.88;7.68;;;9.70;99.90;;;;;;7588796;19;20018;-83
2023/05/19 00:36:02;;;;;;;21.02;7.43;;;9.70;99.90;;;;;;7602598;19;20026;-84
2023/05/19 00:38:35;;;;;;;20.10;7.78;;;9.70;99.90;;;;;;7558381;19;20715;-84
2023/05/19 00:41:07;;;;;;;21.67;7.32;;;9.70;99.90;;;;;;7553080;19;20019;-84
2023/05/19 00:43:40;;;;;;;17.48;6.88;;;9.60;99.90;;;;;;7540689;19;20002;-84
2023/05/19 00:46:13;;;;;;;16.83;7.45;;;9.70;99.90;;;;;;7570824;19;20089;-84
2023/05/19 00:48:45;;;;;;;21.35;7.68;;;9.60;99.90;;;;;;7588246;19;20138;-84
2023/05/19 00:51:18;;;;;;;18.92;7.53;;;9.60;99.90;;;;;;7584147;19;20123;-84
2023/05/19 00:53:50;;;;;;;20.38;8.55;;;9.70;99.90;;;;;;7579022;19;20020;-84
2023/05/19 00:56:23;;;;;;;19.52;6.68;;;9.70;99.90;;;;;;7581589;19;20049;-84
2023/05/19 00:58:56;;;;;;;20.70;7.07;;;9.70;99.90;;;;;;7588468;19;20046;-84
2023/05/19 01:01:28;;;;;;;23.02;7.47;;;9.70;99.90;;;;;;7581968;19;21214;-84
2023/05/19 01:04:02;;;;;;;20.88;6.88;;;9.70;99.90;;;;;;7575357;19;20060;-85
2023/05/19 01:06:38;;;;;;;22.67;7.95;;;9.70;99.90;;;;;;7584208;19;20056;-83
2023/05/19 01:09:11;;;;;;;21.80;7.53;;;9.70;99.90;;;;;;7588083;19;20025;-84
2023/05/19 01:11:43;;;;;;;19.35;7.50;;;9.70;99.90;;;;;;7579361;19;20690;-84
2023/05/19 01:14:16;;;;;;;25.15;7.72;;;9.70;99.90;;;;;;7555737;19;20026;-83
2023/05/19 01:17:05;;;;;;;18.77;7.93;;;9.70;99.90;;;;;;7587808;19;20057;-84
2023/05/19 01:19:45;;;;;;;20.35;7.40;;;9.70;99.90;;;;;;7581808;19;20030;-83
2023/05/19 01:22:28;;;;;;;20.42;7.88;;;9.60;99.90;;;;;;7588380;19;20043;-84
2023/05/19 01:25:38;;;;;;;26.75;7.85;;;9.70;99.90;;;;;;7588458;19;20044;-83
2023/05/19 01:28:22;;;;;;;24.02;7.95;;;9.70;99.90;;;;;;7581063;19;21081;-84
2023/05/19 01:30:57;;;;;;;28.75;8.38;;;9.70;99.90;;;;;;7578704;19;20073;-84
2023/05/19 01:33:31;;;;;;;27.23;7.53;;;9.70;99.90;;;;;;7582826;19;20022;-84
2023/05/19 01:36:03;;;;;;;;;;;9.70;99.90;;;;;;7583702;19;20014;-84
2023/05/19 01:38:37;;;;;;;20.55;7.53;;;9.70;99.90;;;;;;7598887;19;19970;-83
2023/05/19 01:41:11;;;;;;;22.73;7.47;;;9.70;99.90;;;;;;7599035;19;21603;-84
2023/05/19 01:43:43;;;;;;;;;;;9.60;99.90;;;;;;7585926;19;20010;-83
2023/05/19 01:46:17;;;;;;;23.10;7.75;;;9.60;99.90;;;;;;7579447;19;19915;-84
2023/05/19 01:48:51;;;;;;;17.42;7.20;;;9.60;99.90;;;;;;7590179;19;20010;-83
2023/05/19 01:51:23;;;;;;;18.10;7.22;;;9.60;99.90;;;;;;7590880;19;20133;-83
2023/05/19 01:53:56;;;;;;;21.65;8.15;;;9.60;99.90;;;;;;7588071;19;20018;-84
2023/05/19 01:56:53;;;;;;;22.52;7.63;;;9.60;99.90;;;;;;7595984;19;20022;-83
2023/05/19 01:59:31;;;;;;;22.90;7.40;;;9.60;99.90;;;;;;7592184;19;20022;-82
2023/05/19 02:02:20;;;;;;;23.85;7.55;;;9.60;99.90;;;;;;7587690;19;21000;-84
2023/05/19 02:05:02;;;;;;;24.88;8.00;;;9.60;99.90;;;;;;7593301;19;21719;-83
2023/05/19 02:07:47;;;;;;;25.60;8.80;;;9.60;99.90;;;;;;7596138;19;21260;-83
2023/05/19 02:10:26;;;;;;;26.02;8.15;;;9.60;99.90;;;;;;7597407;19;20113;-84
2023/05/19 02:13:03;;;;;;;14.95;7.22;;;9.60;99.90;;;;;;7595382;19;20581;-83
2023/05/19 02:15:41;;;;;;;18.92;7.28;;;9.60;99.90;;;;;;7587667;19;20026;-83
2023/05/19 02:18:16;;;;;;;18.02;7.45;;;9.50;99.90;;;;;;7564538;19;20014;-83
2023/05/19 02:20:53;;;;;;;17.08;7.20;;;9.60;99.90;;;;;;7587507;19;20034;-84
2023/05/19 02:23:27;;;;;;;20.05;8.05;;;9.60;99.90;;;;;;7588345;19;20025;-83
2023/05/19 02:26:01;;;;;;;21.00;7.50;;;9.60;99.90;;;;;;7597858;19;20018;-83
2023/05/19 02:28:35;;;;;;;19.23;7.97;;;9.60;99.90;;;;;;7600392;19;20445;-84
2023/05/19 02:31:08;;;;;;;22.98;8.02;;;9.60;99.90;;;;;;7607612;19;20015;-83
2023/05/19 02:33:41;;;;;;;26.98;8.20;;;9.60;99.90;;;;;;7580902;19;20022;-84
2023/05/19 02:36:13;;;;;;;24.77;7.30;;;9.50;99.90;;;;;;7596866;19;20030;-83
2023/05/19 02:38:46;;;;;;;25.50;7.30;;;9.50;99.90;;;;;;7589043;19;20022;-82
2023/05/19 02:41:20;;;;;;;18.77;7.97;;;9.40;99.90;;;;;;7602932;19;20041;-82
2023/05/19 02:43:52;;;;;;;21.90;7.35;;;9.50;99.90;;;;;;7593733;19;20357;-83
2023/05/19 02:46:27;;;;;;;24.70;7.70;;;9.50;99.90;;;;;;7599353;19;21095;-83
2023/05/19 02:49:00;;;;;;;17.15;7.85;;;9.50;99.90;;;;;;7591335;19;20014;-83
2023/05/19 02:51:32;;;;;;;20.90;7.57;;;9.60;99.90;;;;;;7598662;19;20023;-83
2023/05/19 02:54:04;;;;;;;17.50;7.03;;;9.50;99.90;;;;;;7593395;19;20034;-83
2023/05/19 02:56:36;;;;;;;21.77;7.72;;;9.60;99.90;;;;;;7588920;19;20953;-83
2023/05/19 02:59:09;;;;;;;21.15;7.20;;;9.50;99.90;;;;;;7586349;19;20068;-82
2023/05/19 03:01:41;;;;;;;16.15;7.30;;;9.60;99.90;;;;;;7595194;19;20608;-83
2023/05/19 03:04:13;;;;;;;21.38;7.68;;;9.60;99.90;;;;;;7597327;19;20010;-83
2023/05/19 03:06:45;;;;;;;22.75;8.15;;;9.60;99.90;;;;;;7592450;19;20565;-83
2023/05/19 03:09:18;;;;;;;24.38;8.02;;;9.60;99.90;;;;;;7593101;19;20789;-83
2023/05/19 03:11:50;;;;;;;20.23;7.63;;;9.50;99.90;;;;;;7597142;19;20034;-83
2023/05/19 03:14:23;;;;;;;22.90;7.65;;;9.50;99.90;;;;;;7565539;19;20025;-83
2023/05/19 03:16:55;;;;;;;17.85;7.15;;;9.50;99.90;;;;;;7596503;19;20044;-83
2023/05/19 03:19:28;;;;;;;24.48;7.80;;;9.60;99.90;;;;;;7593433;19;20607;-82
2023/05/19 03:22:00;;;;;;;19.48;8.57;;;9.60;99.90;;;;;;7600296;19;20021;-83
2023/05/19 03:24:33;;;;;;;22.42;8.85;;;9.60;99.90;;;;;;7578287;19;20014;-83
2023/05/19 03:27:06;;;;;;;;;;;9.50;99.90;;;;;;7591810;19;20022;-83
2023/05/19 03:29:38;;;;;;;14.13;7.30;;;9.50;99.90;;;;;;7568459;19;20032;-83
2023/05/19 03:32:10;;;;;;;18.30;7.68;;;9.50;99.90;;;;;;7571242;19;20122;-83
2023/05/19 03:34:43;;;;;;;17.02;7.63;;;9.50;99.90;;;;;;7574679;19;20018;-83
2023/05/19 03:37:15;;;;;;;25.05;7.45;;;9.50;99.90;;;;;;7570750;19;20089;-84
2023/05/19 03:39:47;;;;;;;18.08;7.45;;;9.50;99.90;;;;;;7573054;19;20018;-84
2023/05/19 03:42:20;;;;;;;23.35;7.43;;;9.50;99.90;;;;;;7571012;19;20011;-84
2023/05/19 03:44:52;;;;;;;14.27;7.25;;;9.60;99.90;;;;;;7586590;19;20415;-84
2023/05/19 03:47:25;;;;;;;22.40;7.70;;;9.50;99.90;;;;;;7565231;19;20054;-84
2023/05/19 03:50:21;;;;;;;19.00;7.80;;;9.60;99.90;;;;;;7585682;19;20062;-84
2023/05/19 03:53:00;;;;;;;20.48;7.30;;;9.60;99.90;;;;;;7585725;19;20368;-83
2023/05/19 03:55:36;;;;;;;19.65;7.47;;;9.50;99.90;;;;;;7523656;19;20017;-82
2023/05/19 03:58:10;;;;;;;24.13;8.02;;;9.50;99.90;;;;;;7550832;19;21186;-82
2023/05/19 04:00:42;;;;;;;21.33;8.27;;;9.50;99.90;;;;;;7567074;19;20052;-82
2023/05/19 04:03:14;;;;;;;19.00;7.60;;;9.50;99.90;;;;;;7576553;19;20014;-83
2023/05/19 04:05:47;;;;;;;16.65;7.85;;;9.50;99.90;;;;;;7566367;19;20018;-82
2023/05/19 04:08:19;;;;;;;18.35;7.65;;;9.50;99.90;;;;;;7584397;19;20103;-81
2023/05/19 04:10:52;;;;;;;25.05;8.65;;;9.50;99.90;;;;;;7572615;19;20014;-82
2023/05/19 04:13:24;;;;;;;17.40;7.35;;;9.50;99.90;;;;;;7559325;19;20048;-82
2023/05/19 04:15:57;;;;;;;16.37;7.73;;;9.60;99.90;;;;;;7562431;19;20018;-82
2023/05/19 04:18:30;;;;;;;17.73;7.72;;;9.60;99.90;;;;;;7570062;19;20055;-82
2023/05/19 04:21:03;;;;;;;16.70;7.22;;;9.60;99.90;;;;;;7581018;19;20074;-81
2023/05/19 04:23:35;;;;;;;17.83;7.53;;;9.60;99.90;;;;;;7563975;19;20018;-82
2023/05/19 04:26:08;;;;;;;17.75;7.05;;;9.60;99.90;;;;;;7574061;19;20287;-81
2023/05/19 04:28:43;;;;;;;14.80;7.65;;;9.60;99.90;;;;;;7569067;19;20618;-82
2023/05/19 04:31:15;;;;;;;15.68;7.25;;;9.60;99.90;;;;;;7557083;19;20998;-82
2023/05/19 04:33:48;;;;;;;18.33;7.80;;;9.60;99.90;;;;;;7574219;19;20010;-82
2023/05/19 04:36:21;;;;;;;16.20;6.57;;;9.60;99.90;;;;;;7562647;19;20018;-82
2023/05/19 04:39:01;;;;;;;17.38;7.47;;;9.60;99.90;;;;;;7572365;19;20022;-82
2023/05/19 04:41:34;;;;;;;19.05;8.00;;;9.70;99.90;;;;;;7553482;19;20021;-82
2023/05/19 04:44:09;;;;;;;17.42;7.55;;;9.70;99.90;;;;;;7541395;19;20610;-82
2023/05/19 04:46:43;;;;;;;13.65;8.05;;;9.60;99.90;;;;;;7530880;19;20026;-82
2023/05/19 04:49:18;;;;;;;27.25;9.95;;;9.70;99.90;;;;;;7548896;19;20482;-82
2023/05/19 04:51:51;;;;;;;23.30;7.93;;;9.60;99.90;;;;;;7548193;19;20048;-82
2023/05/19 04:54:29;;;;;;;22.58;8.00;;;9.70;99.90;;;;;;7541938;19;20620;-82
2023/05/19 04:57:02;;;;;;;18.65;8.25;;;9.60;99.90;;;;;;7552058;19;20010;-81
2023/05/19 04:59:36;;;;;;;20.83;7.07;;;9.70;99.90;;;;;;7551959;19;20738;-81
2023/05/19 05:02:12;;;;;;;22.50;8.07;;;9.60;99.90;;;;;;7553045;19;20027;-82
2023/05/19 05:04:45;;;;;;;21.58;8.52;;;9.70;99.90;;;;;;7555442;19;20010;-82
2023/05/19 05:07:17;;;;;;;16.23;7.78;;;9.70;99.90;;;;;;7508730;19;20014;-83
2023/05/19 05:09:50;;;;;;;22.95;8.75;;;9.80;99.90;;;;;;7563382;19;20207;-83
2023/05/19 05:12:22;;;;;;;20.45;7.07;;;9.90;99.90;;;;;;7572153;19;20029;-84
2023/05/19 05:14:55;;;;;;;21.30;8.40;;;9.90;99.90;;;;;;7543849;19;20022;-83
2023/05/19 05:17:28;;;;;;;20.77;7.68;;;10.00;99.90;;;;;;7496371;19;20112;-84
2023/05/19 05:20:02;;;;;;;14.10;8.48;;;10.00;99.90;;;;;;7555425;19;20018;-83
2023/05/19 05:22:35;;;;;;;27.83;9.00;;;10.00;99.90;;;;;;7520310;19;20168;-84
2023/05/19 05:25:08;;;;;;;21.40;8.43;;;10.10;99.90;;;;;;7550232;19;21195;-83
2023/05/19 05:27:41;;;;;;;20.48;8.40;;;10.10;99.90;;;;;;7541460;19;21547;-83
2023/05/19 05:30:13;;;;;;;18.20;8.57;;;10.20;99.90;;;;;;7555462;19;20053;-83
2023/05/19 05:32:46;;;;;;;18.20;8.82;;;10.30;99.90;;;;;;7569526;19;20623;-83
2023/05/19 05:35:40;;;;;;;;;;;10.30;99.90;;;;;;7553706;19;20018;-83
2023/05/19 05:38:14;;;;;;;18.23;8.07;;;10.30;99.90;;;;;;7570314;19;19914;-83
2023/05/19 05:40:46;;;;;;;20.42;8.68;;;10.40;99.90;;;;;;7595383;19;20021;-83
2023/05/19 05:43:19;;;;;;;14.50;8.13;;;10.40;99.90;;;;;;7584876;19;20684;-84
2023/05/19 05:45:57;;;;;;;22.20;8.48;;;10.40;99.90;;;;;;7582191;19;20018;-84
2023/05/19 05:48:30;;;;;;;24.73;8.40;;;10.30;99.90;;;;;;7561275;19;20093;-84
2023/05/19 05:51:04;;;;;;;24.17;8.50;;;10.50;99.90;;;;;;7569384;19;20101;-83
2023/05/19 05:53:43;;;;;;;23.98;7.88;;;10.60;99.90;;;;;;7579582;19;20158;-84
2023/05/19 05:56:17;;;;;;;20.08;7.65;;;10.70;99.90;;;;;;7583210;19;20046;-85
2023/05/19 05:58:54;;;;;;;15.77;7.82;;;10.90;99.90;;;;;;7564768;19;20021;-84
2023/05/19 06:01:26;;;;;;;19.10;7.60;;;11.00;99.90;;;;;;7582492;19;20580;-83
2023/05/19 06:03:59;;;;;;;14.52;8.00;;;11.00;99.90;;;;;;7532468;19;20018;-86
2023/05/19 06:06:31;;;;;;;13.77;6.82;;;11.10;99.90;;;;;;7587832;19;20052;-84
2023/05/19 06:09:06;;;;;;;26.48;7.78;;;11.10;99.90;;;;;;7548726;19;20037;-85
2023/05/19 06:11:38;;;;;;;19.40;8.43;;;11.30;99.90;;;;;;7589940;19;20010;-84
2023/05/19 06:14:11;;;;;;;16.27;8.18;;;11.20;99.90;;;;;;7565880;19;20022;-82
2023/05/19 06:16:55;;;;;;;17.17;7.35;;;11.20;99.90;;;;;;7577648;19;20017;-83
2023/05/19 06:19:28;;;;;;;15.48;8.18;;;11.10;99.90;;;;;;7538993;19;20023;-82
2023/05/19 06:22:00;;;;;;;;;;;11.10;99.90;;;;;;7556250;19;20018;-82
2023/05/19 06:24:34;;;;;;;19.20;7.78;;;11.30;99.90;;;;;;7555637;19;19923;-83
2023/05/19 06:27:10;;;;;;;15.02;8.07;;;11.40;99.90;;;;;;7552933;19;20006;-83
2023/05/19 06:29:42;;;;;;;20.90;7.50;;;11.60;99.90;;;;;;7555849;19;20023;-83
2023/05/19 06:32:17;;;;;;;14.10;7.32;;;11.70;99.90;;;;;;7562035;19;20050;-82
2023/05/19 06:34:53;;;;;;;19.13;7.78;;;11.60;99.90;;;;;;7580959;19;20014;-83
2023/05/19 06:37:25;;;;;;;19.42;7.68;;;11.70;99.90;;;;;;7568686;19;20014;-83
2023/05/19 06:39:57;;;;;;;14.70;8.00;;;11.80;99.90;;;;;;7576106;19;20018;-83
2023/05/19 06:42:30;;;;;;;14.20;7.85;;;11.80;99.90;;;;;;7559253;19;20427;-84
2023/05/19 06:45:11;;;;;;;14.15;7.05;;;11.70;99.90;;;;;;7591081;19;20922;-83
2023/05/19 06:47:43;;;;;;;12.63;6.63;;;11.80;99.90;;;;;;7601552;19;20086;-83
2023/05/19 06:50:17;;;;;;;13.07;6.80;;;11.90;99.90;;;;;;7576444;19;20090;-84
2023/05/19 06:52:53;;;;;;;11.98;6.72;;;12.00;99.90;;;;;;7568012;19;21842;-83
2023/05/19 06:55:25;;;;;;;14.95;7.32;;;12.20;99.90;;;;;;7562665;19;20578;-83
2023/05/19 06:57:57;;;;;;;15.68;6.70;;;12.20;99.90;;;;;;7562737;19;20014;-82
2023/05/19 07:00:31;;;;;;;18.23;6.95;;;12.10;99.90;;;;;;7597722;19;20019;-82
2023/05/19 07:03:05;;;;;;;14.27;6.50;;;12.20;99.90;;;;;;7606939;19;20014;-83
2023/05/19 07:05:38;;;;;;;10.73;6.35;;;12.30;99.90;;;;;;7603160;19;20029;-82
2023/05/19 07:08:10;;;;;;;11.57;6.70;;;12.40;99.90;;;;;;7604798;19;20022;-82
2023/05/19 07:10:43;;;;;;;13.75;6.97;;;12.50;99.90;;;;;;7572852;19;20078;-83
2023/05/19 07:13:18;;;;;;;14.82;7.95;;;12.50;99.90;;;;;;7607830;19;20014;-85
2023/05/19 07:15:54;;;;;;;12.32;6.30;;;12.40;99.90;;;;;;7599084;19;20018;-83
2023/05/19 07:18:30;;;;;;;12.35;6.97;;;12.40;99.90;;;;;;7609456;19;20014;-85
2023/05/19 07:21:03;;;;;;;15.02;6.38;;;12.50;99.90;;;;;;7590885;19;20029;-83
2023/05/19 07:23:35;;;;;;;14.40;6.88;;;12.70;99.90;;;;;;7596029;19;20056;-83
2023/05/19 07:26:07;;;;;;;10.98;6.63;;;12.90;99.90;;;;;;7595138;19;20010;-84
2023/05/19 07:28:41;;;;;;;10.68;6.75;;;13.00;99.90;;;;;;7596284;19;20014;-84
2023/05/19 07:31:13;;;;;;;17.38;7.38;;;13.10;99.90;;;;;;7602521;19;20035;-84
2023/05/19 07:33:45;;;;;;;10.32;6.88;;;13.10;99.90;;;;;;7595209;19;20058;-84
2023/05/19 07:36:18;;;;;;;14.77;7.50;;;13.10;99.90;;;;;;7599236;19;20018;-83
2023/05/19 07:38:50;;;;;;;15.35;7.13;;;13.00;99.90;;;;;;7599380;19;20117;-84
2023/05/19 07:41:22;;;;;;;12.65;7.10;;;13.00;99.90;;;;;;7595700;19;20033;-83
2023/05/19 07:43:55;;;;;;;14.32;6.60;;;13.10;99.90;;;;;;7596048;19;20010;-84
2023/05/19 07:46:27;;;;;;;15.80;6.78;;;13.40;99.90;;;;;;7604530;19;20500;-83
2023/05/19 07:49:00;;;;;;;9.95;7.07;;;13.50;99.90;;;;;;7589713;19;20018;-84
2023/05/19 07:51:32;;;;;;;12.05;6.72;;;13.50;99.90;;;;;;7610686;19;20043;-84
2023/05/19 07:54:04;;;;;;;15.98;6.60;;;13.50;99.90;;;;;;7591073;19;20017;-83
2023/05/19 07:56:36;;;;;;;11.68;6.72;;;13.40;99.90;;;;;;7609298;19;20040;-84
2023/05/19 07:59:09;;;;;;;9.90;6.50;;;13.60;99.90;;;;;;7603566;19;20021;-83
2023/05/19 08:01:41;;;;;;;15.27;6.40;;;13.60;99.90;;;;;;7597285;19;20039;-82
2023/05/19 08:04:13;;;;;;;14.95;7.05;;;13.40;99.90;;;;;;7594603;19;20014;-83
2023/05/19 08:06:46;;;;;;;10.40;6.45;;;13.30;99.90;;;;;;7603410;19;20660;-84
2023/05/19 08:09:18;;;;;;;14.00;6.55;;;13.30;99.90;;;;;;7599385;19;20018;-83
2023/05/19 08:11:50;;;;;;;10.63;6.63;;;13.30;99.90;;;;;;7597801;19;20451;-83
2023/05/19 08:14:23;;;;;;;13.50;7.40;;;13.30;99.90;;;;;;7605511;19;20641;-83
2023/05/19 08:16:55;;;;;;;12.13;6.38;;;13.20;99.90;;;;;;7606405;19;20626;-84
2023/05/19 08:19:27;;;;;;;8.13;6.72;;;13.10;99.90;;;;;;7603147;19;20346;-84
2023/05/19 08:22:00;;;;;;;10.65;6.72;;;13.20;99.90;;;;;;7607677;19;20783;-84
2023/05/19 08:24:32;;;;;;;12.27;6.88;;;13.20;99.90;;;;;;7587516;19;20029;-83
2023/05/19 08:27:05;;;;;;;11.65;7.18;;;13.20;99.90;;;;;;7599411;19;20090;-82
2023/05/19 08:29:41;;;;;;;12.30;7.32;;;13.30;99.90;;;;;;7594796;19;20017;-83
2023/05/19 08:32:13;;;;;;;12.17;7.97;;;13.30;99.90;;;;;;7608425;19;20114;-83
2023/05/19 08:34:45;;;;;;;15.38;8.43;;;13.20;99.90;;;;;;7605487;19;20606;-83
2023/05/19 08:37:17;;;;;;;11.02;7.70;;;13.20;99.90;;;;;;7607069;19;20094;-82
2023/05/19 08:39:50;;;;;;;9.38;6.85;;;13.30;99.90;;;;;;7595692;19;21197;-83
2023/05/19 08:42:22;;;;;;;13.13;6.93;;;13.30;99.90;;;;;;7602490;19;20011;-82
2023/05/19 08:44:54;;;;;;;11.63;6.95;;;13.40;99.90;;;;;;7594400;19;20018;-82
2023/05/19 08:47:27;;;;;;;11.48;7.40;;;13.30;99.90;;;;;;7604527;19;20077;-81
2023/05/19 08:50:06;;;;;;;13.63;6.70;;;13.20;99.90;;;;;;7609755;19;20038;-84
2023/05/19 08:52:49;;;;;;;20.35;7.15;;;13.10;99.90;;;;;;7601960;19;20014;-84
2023/05/19 08:55:35;;;;;;;16.58;7.57;;;13.10;99.90;;;;;;7606088;19;20033;-82
2023/05/19 08:58:07;;;;;;;12.88;6.97;;;13.00;99.90;;;;;;7600008;19;20018;-83
2023/05/19 09:00:40;;;;;;;13.38;8.10;;;12.90;99.90;;;;;;7593396;19;20478;-83
2023/05/19 09:03:14;;;;;;;9.65;7.07;;;12.90;99.90;;;;;;7605201;19;20018;-83
2023/05/19 09:05:54;;;;;;;11.27;6.90;;;12.80;99.90;;;;;;7606573;19;20017;-84
2023/05/19 09:08:26;;;;;;;11.07;7.68;;;12.80;99.90;;;;;;7590373;19;20029;-84
2023/05/19 09:10:59;;;;;;;14.30;7.63;;;12.70;99.90;;;;;;7606068;19;20019;-82
2023/05/19 09:13:31;;;;;;;12.57;7.75;;;12.70;99.90;;;;;;7599831;19;20018;-86
2023/05/19 09:16:04;;;;;;;19.27;7.45;;;12.70;99.90;;;;;;7602412;19;20015;-84
2023/05/19 09:18:39;;;;;;;11.98;7.82;;;12.60;99.90;;;;;;7593333;19;20796;-84
2023/05/19 09:21:11;;;;;;;16.08;7.60;;;12.60;99.90;;;;;;7605697;19;20014;-83
2023/05/19 09:23:46;;;;;;;14.70;7.83;;;12.70;99.90;;;;;;7603334;19;20026;-84
2023/05/19 09:26:19;;;;;;;10.70;7.90;;;12.70;99.90;;;;;;7612118;19;20030;-84
2023/05/19 09:28:57;;;;;;;14.18;7.55;;;12.80;99.90;;;;;;7598910;19;20022;-84
2023/05/19 09:31:32;;;;;;;15.82;8.30;;;12.90;99.90;;;;;;7606558;19;20511;-83
2023/05/19 09:34:11;;;;;;;12.02;8.27;;;12.90;99.90;;;;;;7614369;19;20064;-84
2023/05/19 09:36:48;;;;;;;13.05;7.55;;;13.00;99.90;;;;;;7565897;19;20015;-83
2023/05/19 09:39:22;;;;;;;17.92;7.30;;;12.90;99.90;;;;;;7596179;19;20029;-83
2023/05/19 09:41:57;;;;;;;11.35;7.72;;;12.80;99.90;;;;;;7589875;19;20066;-83
2023/05/19 09:44:30;;;;;;;12.13;7.20;;;12.70;99.90;;;;;;7597370;19;20096;-83
2023/05/19 09:47:04;;;;;;;11.93;7.70;;;12.70;99.90;;;;;;7593490;19;20033;-83
2023/05/19 09:49:45;;;;;;;14.68;7.60;;;12.80;99.90;;;;;;7580532;19;20049;-84
2023/05/19 09:52:19;;;;;;;11.20;8.07;;;12.70;99.90;;;;;;7599641;19;20621;-83
2023/05/19 09:54:53;;;;;;;12.00;7.35;;;12.80;99.90;;;;;;7595061;19;20015;-84
2023/05/19 09:57:27;;;;;;;14.32;8.05;;;12.80;99.90;;;;;;7607670;19;20022;-83
2023/05/19 10:00:00;;;;;;;18.35;8.73;;;12.90;99.90;;;;;;7599108;19;20023;-83
2023/05/19 10:02:36;;;;;;;17.70;8.25;;;12.90;99.90;;;;;;7586468;19;20052;-83
2023/05/19 10:05:21;;;;;;;18.65;8.65;;;12.90;99.90;;;;;;7555058;19;20025;-83
2023/05/19 10:07:54;;;;;;;16.00;9.50;;;12.80;99.90;;;;;;7568911;19;20021;-84
2023/05/19 10:10:28;;;;;;;16.15;9.80;;;12.70;99.90;;;;;;7603928;19;20687;-84
2023/05/19 10:13:02;;;;;;;17.70;11.15;;;12.70;99.90;;;;;;7590461;19;20473;-82
2023/05/19 10:15:36;;;;;;;16.90;9.88;;;12.70;99.90;;;;;;7583504;19;20018;-84
2023/05/19 10:18:29;;;;;;;16.50;10.45;;;12.70;99.90;;;;;;7595445;19;20853;-84
2023/05/19 10:21:02;;;;;;;13.27;10.02;;;12.70;99.90;;;;;;7601645;19;20022;-84
2023/05/19 10:23:36;;;;;;;19.92;9.82;;;12.80;99.90;;;;;;7592258;19;20014;-84
2023/05/19 10:26:09;;;;;;;20.60;10.20;;;12.80;99.90;;;;;;7589577;19;21323;-84
2023/05/19 10:28:43;;;;;;;13.63;9.07;;;12.80;99.90;;;;;;7592450;19;20053;-83
2023/05/19 10:31:18;;;;;;;15.00;9.38;;;12.70;99.90;;;;;;7588283;19;20021;-84
2023/05/19 10:34:09;;;;;;;17.10;9.63;;;12.80;99.90;;;;;;7587987;19;20022;-85
2023/05/19 10:36:48;;;;;;;15.10;9.55;;;12.80;99.90;;;;;;7587858;19;21160;-83
2023/05/19 10:39:36;;;;;;;16.08;9.32;;;12.90;99.90;;;;;;7598003;19;20712;-83
2023/05/19 10:42:22;;;;;;;17.92;10.38;;;13.00;99.90;;;;;;7607696;19;20014;-83
2023/05/19 10:45:12;;;;;;;18.08;9.93;;;13.00;99.90;;;;;;7583648;19;20111;-82
2023/05/19 10:47:44;;;;;;;19.80;10.55;;;13.10;99.90;;;;;;7598795;19;20018;-83
2023/05/19 10:50:17;;;;;;;19.07;10.27;;;13.00;99.90;;;;;;7596236;19;20018;-83
2023/05/19 10:52:54;;;;;;;166.77;52.85;;;13.10;99.90;;;;;;7584002;19;20014;-83
2023/05/19 10:55:51;;;;;;;20.80;12.05;;;13.20;99.90;;;;;;7595034;19;22891;-83
2023/05/19 10:58:42;;;;;;;16.88;9.35;;;13.20;99.90;;;;;;7595952;19;20622;-83
2023/05/19 11:01:17;;;;;;;16.63;9.73;;;13.20;99.90;;;;;;7589386;19;20022;-83
2023/05/19 11:03:52;;;;;;;17.63;9.80;;;13.10;99.90;;;;;;7600857;19;20018;-83
2023/05/19 11:06:28;;;;;;;34.65;21.98;;;13.00;99.90;;;;;;7587288;19;21074;-84
2023/05/19 11:09:07;;;;;;;15.55;10.02;;;13.10;99.90;;;;;;7587723;19;20015;-83
2023/05/19 11:11:45;;;;;;;26.27;14.82;;;13.10;99.90;;;;;;7593553;19;20022;-83
2023/05/19 11:14:20;;;;;;;18.50;10.80;;;13.20;99.90;;;;;;7590786;19;20359;-84
2023/05/19 11:16:59;;;;;;;19.70;10.75;;;13.30;99.90;;;;;;7597199;19;20561;-83
2023/05/19 11:19:34;;;;;;;18.88;9.75;;;13.30;99.90;;;;;;7591011;19;20094;-84
2023/05/19 11:22:11;;;;;;;21.23;10.88;;;13.30;99.90;;;;;;7590142;19;20383;-83
2023/05/19 11:24:52;;;;;;;22.27;11.00;;;13.40;99.90;;;;;;7592052;19;20010;-83
2023/05/19 11:27:27;;;;;;;17.60;10.88;;;13.50;99.90;;;;;;7591754;19;20015;-83
2023/05/19 11:30:10;;;;;;;17.42;11.48;;;13.40;99.90;;;;;;7596468;19;20017;-83
2023/05/19 11:32:46;;;;;;;19.90;11.85;;;13.40;99.90;;;;;;7591545;19;20039;-83
2023/05/19 11:35:20;;;;;;;23.35;11.77;;;13.30;99.90;;;;;;7595269;19;21176;-83
2023/05/19 11:37:53;;;;;;;18.35;11.25;;;13.30;99.90;;;;;;7591988;19;20045;-83
2023/05/19 11:40:27;;;;;;;16.42;10.35;;;13.30;99.90;;;;;;7595102;19;20515;-83
2023/05/19 11:43:00;;;;;;;17.90;10.73;;;13.30;99.90;;;;;;7597566;19;20021;-83
2023/05/19 11:45:33;;;;;;;22.23;12.60;;;13.30;99.90;;;;;;7592038;19;20014;-83
2023/05/19 11:48:11;;;;;;;19.80;12.52;;;13.30;99.90;;;;;;7596682;19;20019;-83
2023/05/19 11:50:43;;;;;;;18.45;12.27;;;13.20;99.90;;;;;;7601467;19;20018;-83
2023/05/19 11:53:18;;;;;;;21.42;13.50;;;13.20;99.90;;;;;;7585399;19;20014;-83
2023/05/19 11:55:51;;;;;;;20.10;12.27;;;13.10;99.90;;;;;;7593649;19;20057;-83
2023/05/19 11:58:26;;;;;;;16.90;11.30;;;13.20;99.90;;;;;;7596121;19;20014;-83
2023/05/19 12:01:02;;;;;;;17.95;11.63;;;13.20;99.90;;;;;;7596685;19;20349;-83
2023/05/19 12:03:35;;;;;;;17.70;11.70;;;13.20;99.90;;;;;;7589210;19;20026;-85
2023/05/19 12:06:07;;;;;;;18.95;12.20;;;13.30;99.90;;;;;;7581310;19;20955;-84
2023/05/19 12:08:40;;;;;;;18.20;13.15;;;13.30;99.90;;;;;;7600822;19;20017;-84
2023/05/19 12:11:13;;;;;;;21.00;12.23;;;13.20;99.90;;;;;;7593314;19;20048;-83
2023/05/19 12:13:46;;;;;;;24.75;14.15;;;13.30;99.90;;;;;;7598178;19;20026;-82
2023/05/19 12:16:22;;;;;;;24.02;13.60;;;13.30;99.90;;;;;;7598111;19;20024;-85
2023/05/19 12:18:54;;;;;;;27.63;13.63;;;13.30;99.90;;;;;;7591706;19;20014;-84
2023/05/19 12:21:28;;;;;;;21.65;12.60;;;13.20;99.90;;;;;;7598066;19;20048;-84
2023/05/19 12:24:05;;;;;;;20.75;12.75;;;13.20;99.90;;;;;;7596900;19;20098;-82
2023/05/19 12:26:39;;;;;;;22.23;13.48;;;13.10;99.90;;;;;;7588766;19;20022;-84
2023/05/19 12:29:12;;;;;;;20.45;12.20;;;13.10;99.90;;;;;;7590364;19;20023;-83
2023/05/19 12:31:46;;;;;;;19.35;13.45;;;13.20;99.90;;;;;;7589683;19;20925;-83
2023/05/19 12:34:19;;;;;;;24.15;13.68;;;13.20;99.90;;;;;;7589913;19;20014;-84
2023/05/19 12:36:51;;;;;;;23.27;13.77;;;13.30;99.90;;;;;;7604886;19;20018;-84
2023/05/19 12:39:24;;;;;;;22.42;13.35;;;13.30;99.90;;;;;;7595442;19;20376;-84
2023/05/19 12:42:11;;;;;;;20.52;13.25;;;13.40;99.90;;;;;;7592221;19;20044;-84
2023/05/19 12:44:49;;;;;;;21.20;13.43;;;13.40;99.90;;;;;;7596546;19;20117;-85
2023/05/19 12:47:21;;;;;;;23.77;13.73;;;13.40;99.90;;;;;;7605537;19;20048;-84
2023/05/19 12:50:08;;;;;;;22.10;13.10;;;13.50;99.90;;;;;;7609932;19;20964;-84
2023/05/19 12:52:45;;;;;;;22.80;13.18;;;13.60;99.90;;;;;;7605008;19;20056;-83
2023/05/19 12:55:19;;;;;;;22.02;12.50;;;13.70;99.90;;;;;;7597691;19;20018;-84
2023/05/19 12:57:58;;;;;;;;;;;13.80;99.90;;;;;;7607891;19;20025;-83
2023/05/19 13:00:31;;;;;;;21.05;12.07;;;13.70;99.90;;;;;;7598513;19;19926;-83
2023/05/19 13:03:13;;;;;;;;;;;13.80;99.90;;;;;;7594614;19;20022;-84
2023/05/19 13:05:48;;;;;;;18.33;12.40;;;13.90;99.90;;;;;;7593920;19;19954;-84
2023/05/19 13:08:22;;;;;;;20.92;12.05;;;14.00;99.90;;;;;;7600058;19;20018;-84
2023/05/19 13:10:55;;;;;;;18.48;12.20;;;14.10;99.90;;;;;;7604309;19;20368;-84
2023/05/19 13:13:27;;;;;;;15.50;11.20;;;14.40;99.90;;;;;;7596807;19;20006;-83
2023/05/19 13:16:00;;;;;;;18.30;11.73;;;14.50;99.90;;;;;;7600969;19;20283;-83
2023/05/19 13:18:35;;;;;;;16.17;11.65;;;14.60;99.30;;;;;;7607692;19;20246;-83